Time;durP1;ratioP1;P1;durP2;ratioP2;P2;SDS_P1;SDS_P2;PMS_P1;PMS_P2;Temp;Humidity;BMP_temperature;BMP_pressure;BME280_temperature;BME280_humidity;BME280_pressure;Samples;Min_cycle;Max_cycle;Signal;HPM_P1;HPM_P2
2023/03/02 00:02:52;;;;;;;10.40;4.00;;;;;;;-1.46;97.86;100900.42;110035;1246;74232;-73
2023/03/02 00:05:41;;;;;;;13.00;4.30;;;;;;;-1.50;97.71;100897.01;109841;1246;59810;-74
2023/03/02 00:08:29;;;;;;;14.70;4.50;;;;;;;-1.52;97.91;100900.69;110097;1246;60347;-74
2023/03/02 00:11:17;;;;;;;13.90;5.00;;;;;;;-1.54;98.10;100903.16;110058;1246;74703;-72
2023/03/02 00:14:06;;;;;;;14.40;5.20;;;;;;;-1.55;98.46;100898.98;110085;1246;66481;-72
2023/03/02 00:16:53;;;;;;;14.40;5.20;;;;;;;-1.55;98.51;100901.96;109889;1246;72522;-73
2023/03/02 00:19:43;;;;;;;17.00;4.50;;;;;;;-1.54;98.49;100902.11;110070;1246;58086;-71
2023/03/02 00:22:31;;;;;;;14.70;4.50;;;;;;;-1.52;98.64;100901.91;109988;1246;62126;-71
2023/03/02 00:25:20;;;;;;;12.70;4.40;;;;;;;-1.51;98.73;100905.55;110046;1246;72614;-74
2023/03/02 00:28:08;;;;;;;12.60;3.40;;;;;;;-1.50;98.82;100903.45;110029;1246;66282;-74
2023/03/02 00:30:56;;;;;;;12.30;3.50;;;;;;;-1.49;98.84;100904.84;110035;1246;71421;-73
2023/03/02 00:33:44;;;;;;;10.50;3.50;;;;;;;-1.50;98.82;100907.09;110010;1246;58097;-72
2023/03/02 00:36:32;;;;;;;10.60;4.00;;;;;;;-1.50;99.06;100905.54;110076;1247;59074;-73
2023/03/02 00:39:20;;;;;;;13.60;3.70;;;;;;;-1.52;98.74;100902.78;110079;1246;74991;-73
2023/03/02 00:42:07;;;;;;;11.10;4.00;;;;;;;-1.53;98.77;100898.45;110105;1246;66575;-74
2023/03/02 00:45:00;;;;;;;15.00;3.50;;;;;;;-1.54;98.83;100901.77;109870;1246;71561;-73
2023/03/02 00:47:48;;;;;;;13.20;3.30;;;;;;;-1.54;99.00;100898.97;110080;1246;58457;-72
2023/03/02 00:50:40;;;;;;;13.40;3.50;;;;;;;-1.52;99.14;100900.34;109321;1246;1002269;-74
2023/03/02 00:53:28;;;;;;;12.20;3.50;;;;;;;-1.51;99.22;100897.72;109894;1246;72524;-73
2023/03/02 00:56:16;;;;;;;12.00;2.90;;;;;;;-1.50;99.55;100896.83;109881;1246;67651;-74
2023/03/02 00:59:25;;;;;;;11.70;3.30;;;;;;;-1.50;99.90;100891.77;108947;1251;1002130;-73
2023/03/02 01:02:42;;;;;;;11.30;2.90;;;;;;;-1.51;99.96;100889.70;109898;1247;58106;-74
2023/03/02 01:05:36;;;;;;;10.90;2.70;;;;;;;-1.52;99.94;100886.23;109896;1246;61312;-73
2023/03/02 01:08:24;;;;;;;9.80;2.80;;;;;;;-1.53;100.00;100879.64;110051;1246;73755;-74
2023/03/02 01:11:19;;;;;;;11.00;2.60;;;;;;;-1.55;99.98;100882.80;109144;1246;1002324;-74
2023/03/02 01:14:06;;;;;;;9.20;2.70;;;;;;;-1.57;100.00;100883.00;109879;1246;72775;-73
2023/03/02 01:16:54;;;;;;;9.50;2.90;;;;;;;-1.58;100.00;100885.45;109565;1251;58377;-74
2023/03/02 01:19:43;;;;;;;11.80;3.10;;;;;;;-1.58;100.00;100886.48;109602;1251;60839;-74
2023/03/02 01:22:31;;;;;;;10.60;2.90;;;;;;;-1.58;100.00;100888.59;109606;1251;72922;-71
2023/03/02 01:25:19;;;;;;;9.60;3.20;;;;;;;-1.58;100.00;100883.19;109653;1251;66465;-73
2023/03/02 01:28:06;;;;;;;11.90;2.90;;;;;;;-1.57;100.00;100882.99;109612;1251;72850;-73
2023/03/02 01:30:54;;;;;;;9.40;2.80;;;;;;;-1.54;100.00;100883.48;109581;1251;58849;-74
2023/03/02 01:33:42;;;;;;;9.20;3.00;;;;;;;-1.52;100.00;100882.06;108813;1251;1002267;-74
2023/03/02 01:36:30;;;;;;;7.50;2.30;;;;;;;-1.50;100.00;100879.77;109617;1251;74543;-73
2023/03/02 01:39:21;;;;;;;9.50;3.00;;;;;;;-1.48;100.00;100881.83;109572;1251;69106;-72
2023/03/02 01:42:09;;;;;;;10.40;2.60;;;;;;;-1.47;100.00;100878.50;109558;1251;73914;-73
2023/03/02 01:44:58;;;;;;;11.00;3.00;;;;;;;-1.46;100.00;100882.67;108806;1251;1002364;-73
2023/03/02 01:47:46;;;;;;;8.20;2.40;;;;;;;-1.44;100.00;100880.20;109594;1251;58715;-72
2023/03/02 01:50:36;;;;;;;13.10;2.90;;;;;;;-1.44;100.00;100874.79;109608;1251;71633;-73
2023/03/02 01:53:28;;;;;;;10.20;3.20;;;;;;;-1.44;100.00;100867.67;109699;1250;66941;-75
2023/03/02 01:56:22;;;;;;;9.20;2.90;;;;;;;-1.45;100.00;100865.95;109069;1246;1002300;-74
2023/03/02 01:59:19;;;;;;;9.70;2.80;;;;;;;-1.47;100.00;100863.89;109751;1247;58162;-74
2023/03/02 02:02:10;;;;;;;8.40;2.30;;;;;;;-1.50;100.00;100866.20;109965;1246;60281;-74
2023/03/02 02:04:58;;;;;;;9.30;2.10;;;;;;;-1.54;100.00;100865.73;109959;1246;73878;-74
2023/03/02 02:07:46;;;;;;;8.10;2.40;;;;;;;-1.56;100.00;100868.02;109966;1246;66763;-74
2023/03/02 02:10:35;;;;;;;10.70;3.00;;;;;;;-1.62;100.00;100862.88;110042;1246;72765;-74
2023/03/02 02:13:23;;;;;;;8.50;2.50;;;;;;;-1.58;100.00;100865.61;109880;1246;59670;-74
2023/03/02 02:16:11;;;;;;;20.90;6.30;;;;;;;-1.64;100.00;100852.82;110112;1246;58681;-75
2023/03/02 02:19:01;;;;;;;50.80;14.10;;;;;;;-1.59;100.00;100857.64;109919;1246;74044;-73
2023/03/02 02:21:49;;;;;;;128.40;33.50;;;;;;;-1.60;100.00;100852.61;109963;1246;68901;-75
2023/03/02 02:24:58;;;;;;;147.60;39.40;;;;;;;-1.62;100.00;100855.05;110088;1246;70214;-74
2023/03/02 02:27:46;;;;;;;144.30;36.20;;;;;;;-1.63;100.00;100858.20;109934;1246;58116;-74
2023/03/02 02:30:39;;;;;;;144.80;34.80;;;;;;;-1.67;100.00;100862.44;110064;1250;58765;-73
2023/03/02 02:33:27;;;;;;;149.80;38.60;;;;;;;-1.72;100.00;100860.94;109940;1246;73768;-74
2023/03/02 02:36:24;;;;;;;119.10;33.50;;;;;;;-1.74;100.00;100865.48;109887;1246;68564;-73
2023/03/02 02:39:30;;;;;;;68.50;26.40;;;;;;;-1.76;100.00;100864.83;109985;1247;71335;-74
2023/03/02 02:42:26;;;;;;;37.60;14.60;;;;;;;-1.79;100.00;100863.13;109105;1246;1002217;-73
2023/03/02 02:45:23;;;;;;;17.80;7.30;;;;;;;-1.80;100.00;100863.84;109837;1246;60536;-73
2023/03/02 02:48:17;;;;;;;15.70;4.70;;;;;;;-1.80;100.00;100864.17;109863;1246;75106;-72
2023/03/02 02:51:11;;;;;;;8.00;3.10;;;;;;;-1.80;100.00;100857.41;110082;1246;66706;-73
2023/03/02 02:54:02;;;;;;;9.00;3.40;;;;;;;-1.81;100.00;100856.73;109818;1246;71884;-73
2023/03/02 02:56:57;;;;;;;11.20;3.00;;;;;;;-1.80;100.00;100855.48;109799;1246;58901;-74
2023/03/02 02:59:51;;;;;;;7.60;2.90;;;;;;;-1.79;100.00;100855.14;109619;1247;58109;-74
2023/03/02 03:02:44;;;;;;;9.00;2.80;;;;;;;-1.77;100.00;100849.89;109679;1246;181066;-73
2023/03/02 03:05:32;;;;;;;7.90;2.30;;;;;;;-1.78;100.00;100848.15;109779;1246;67682;-72
2023/03/02 03:08:44;;;;;;;9.50;2.60;;;;;;;-1.78;100.00;100848.50;110040;1246;73895;-73
2023/03/02 03:11:43;;;;;;;8.30;2.60;;;;;;;-1.81;100.00;100848.20;109037;1246;1003038;-72
2023/03/02 03:14:40;;;;;;;9.80;2.40;;;;;;;-1.83;100.00;100844.91;109808;1251;60303;-76
2023/03/02 03:17:29;;;;;;;7.70;2.40;;;;;;;-1.84;100.00;100845.98;109808;1246;71393;-74
2023/03/02 03:20:21;;;;;;;8.20;2.30;;;;;;;-1.86;100.00;100841.66;109808;1246;68077;-76
2023/03/02 03:23:09;;;;;;;10.00;3.30;;;;;;;-1.87;100.00;100835.94;109725;1246;73665;-72
2023/03/02 03:25:57;;;;;;;22.10;8.80;;;;;;;-1.88;100.00;100836.29;109866;1246;58473;-73
2023/03/02 03:28:45;;;;;;;15.30;6.60;;;;;;;-1.86;100.00;100835.40;110012;1251;59301;-72
2023/03/02 03:31:34;;;;;;;13.70;5.90;;;;;;;-1.90;100.00;100828.83;109871;1246;74620;-72
2023/03/02 03:34:24;;;;;;;16.10;7.40;;;;;;;-1.85;100.00;100833.98;109889;1246;67582;-73
2023/03/02 03:37:17;;;;;;;17.20;8.00;;;;;;;-1.85;100.00;100834.51;109882;1246;73732;-73
2023/03/02 03:40:08;;;;;;;17.30;8.10;;;;;;;-1.83;100.00;100832.91;109877;1246;57987;-74
2023/03/02 03:42:58;;;;;;;17.90;8.70;;;;;;;-1.83;100.00;100831.16;109777;1246;60056;-74
2023/03/02 03:45:46;;;;;;;18.40;8.00;;;;;;;-1.81;100.00;100829.77;109885;1246;73416;-73
2023/03/02 03:48:34;;;;;;;18.20;8.10;;;;;;;-1.82;100.00;100826.81;109966;1246;68923;-72
2023/03/02 03:51:23;;;;;;;13.80;5.80;;;;;;;-1.83;100.00;100825.95;109891;1246;71480;-74
2023/03/02 03:54:11;;;;;;;12.90;3.80;;;;;;;-1.84;100.00;100826.48;109891;1246;58228;-74
2023/03/02 03:57:00;;;;;;;8.40;3.00;;;;;;;-1.84;100.00;100824.23;110069;1246;60119;-74
2023/03/02 03:59:48;;;;;;;7.90;2.80;;;;;;;-1.85;100.00;100823.91;109322;1246;1002135;-73
2023/03/02 04:02:36;;;;;;;8.90;2.50;;;;;;;-1.84;100.00;100823.20;109927;1246;66475;-74
2023/03/02 04:05:25;;;;;;;6.90;2.10;;;;;;;-1.84;100.00;100818.48;110052;1251;72710;-74
2023/03/02 04:08:14;;;;;;;7.20;2.10;;;;;;;-1.82;100.00;100812.02;109866;1246;58390;-74
2023/03/02 04:11:02;;;;;;;7.40;2.10;;;;;;;-1.81;100.00;100808.70;109894;1246;60644;-74
2023/03/02 04:13:50;;;;;;;6.40;2.00;;;;;;;-1.81;100.00;100802.79;109772;1246;73763;-74
2023/03/02 04:16:39;;;;;;;9.40;2.40;;;;;;;-1.81;100.00;100805.21;109865;1246;65628;-74
2023/03/02 04:19:28;;;;;;;7.50;2.20;;;;;;;-1.79;100.00;100806.59;109895;1246;70215;-73
2023/03/02 04:22:18;;;;;;;7.90;2.50;;;;;;;-1.78;100.00;100806.04;110029;1246;58083;-73
2023/03/02 04:25:07;;;;;;;6.10;1.50;;;;;;;-1.77;100.00;100800.65;109950;1246;60202;-74
2023/03/02 04:27:56;;;;;;;6.40;1.90;;;;;;;-1.77;100.00;100798.21;110056;1246;73964;-74
2023/03/02 04:30:47;;;;;;;6.90;1.90;;;;;;;-1.78;100.00;100799.96;109028;1246;1002110;-73
2023/03/02 04:33:35;;;;;;;7.60;2.20;;;;;;;-1.78;100.00;100802.21;109874;1252;71686;-76
2023/03/02 04:36:24;;;;;;;5.70;1.70;;;;;;;-1.78;100.00;100801.52;109799;1246;58125;-75
2023/03/02 04:39:16;;;;;;;5.90;1.60;;;;;;;-1.76;100.00;100802.54;110009;1246;58182;-77
2023/03/02 04:42:10;;;;;;;8.40;2.10;;;;;;;-1.75;100.00;100799.20;109846;1246;73476;-76
2023/03/02 04:44:58;;;;;;;6.30;1.60;;;;;;;-1.72;100.00;100795.70;109919;1246;66159;-75
2023/03/02 04:47:46;;;;;;;8.30;2.90;;;;;;;-1.72;100.00;100796.21;109950;1246;73821;-76
2023/03/02 04:50:34;;;;;;;6.00;1.90;;;;;;;-1.70;100.00;100795.30;109213;1247;1002240;-75
2023/03/02 04:53:22;;;;;;;8.20;1.80;;;;;;;-1.68;100.00;100790.76;110006;1246;60121;-76
2023/03/02 04:56:10;;;;;;;6.90;1.90;;;;;;;-1.67;100.00;100793.20;110020;1246;73789;-75
2023/03/02 04:58:59;;;;;;;7.00;1.70;;;;;;;-1.66;100.00;100795.44;109969;1246;68083;-75
2023/03/02 05:01:47;;;;;;;5.50;1.50;;;;;;;-1.66;100.00;100794.39;110013;1246;72730;-78
2023/03/02 05:04:35;;;;;;;5.50;1.40;;;;;;;-1.67;100.00;100793.53;109755;1246;58240;-78
2023/03/02 05:07:24;;;;;;;6.40;1.70;;;;;;;-1.68;100.00;100793.02;109780;1246;60042;-79
2023/03/02 05:10:15;;;;;;;6.20;2.00;;;;;;;-1.68;100.00;100791.80;110025;1246;72351;-78
2023/03/02 05:13:04;;;;;;;6.30;1.70;;;;;;;-1.68;100.00;100786.23;109718;1246;66717;-79
2023/03/02 05:15:52;;;;;;;6.80;1.70;;;;;;;-1.69;100.00;100786.42;110022;1246;72511;-80
2023/03/02 05:18:41;;;;;;;6.20;1.60;;;;;;;-1.68;100.00;100787.81;109810;1253;58054;-79
2023/03/02 05:21:29;;;;;;;8.10;1.90;;;;;;;-1.67;100.00;100791.80;109699;1246;58176;-77
2023/03/02 05:24:17;;;;;;;5.90;1.40;;;;;;;-1.66;100.00;100791.08;109040;1246;1002408;-78
2023/03/02 05:27:05;;;;;;;7.00;1.80;;;;;;;-1.66;100.00;100787.77;109708;1248;66395;-78
2023/03/02 05:29:53;;;;;;;5.90;1.70;;;;;;;-1.64;100.00;100790.02;109719;1246;73643;-79
2023/03/02 05:32:42;;;;;;;7.30;1.50;;;;;;;-1.63;100.00;100790.88;109782;1248;58120;-79
2023/03/02 05:35:30;;;;;;;5.70;1.70;;;;;;;-1.64;100.00;100790.35;109092;1247;1002204;-79
2023/03/02 05:38:18;;;;;;;10.20;2.10;;;;;;;-1.65;100.00;100793.84;109813;1246;71291;-79
2023/03/02 05:41:07;;;;;;;6.70;1.80;;;;;;;-1.65;100.00;100792.98;110049;1246;67979;-76
2023/03/02 05:43:55;;;;;;;8.80;3.10;;;;;;;-1.65;100.00;100792.27;108933;1246;1002234;-77
2023/03/02 05:46:44;;;;;;;8.00;2.20;;;;;;;-1.68;100.00;100785.19;109773;1246;58118;-77
2023/03/02 05:49:31;;;;;;;8.50;2.70;;;;;;;-1.61;100.00;100792.92;109824;1250;60150;-78
2023/03/02 05:52:20;;;;;;;9.70;3.20;;;;;;;-1.58;100.00;100791.66;109824;1246;72595;-79
2023/03/02 05:55:08;;;;;;;9.10;3.10;;;;;;;-1.55;100.00;100791.08;109840;1246;67562;-77
2023/03/02 05:57:56;;;;;;;10.10;3.00;;;;;;;-1.53;100.00;100789.48;109818;1246;73769;-77
2023/03/02 06:00:46;;;;;;;9.40;2.60;;;;;;;-1.53;99.89;100786.70;110027;1247;58110;-78
2023/03/02 06:03:34;;;;;;;8.20;2.70;;;;;;;-1.54;99.78;100791.23;109987;1246;60011;-77
2023/03/02 06:06:21;;;;;;;9.30;2.50;;;;;;;-1.55;99.47;100786.72;109287;1246;1002700;-77
2023/03/02 06:09:09;;;;;;;11.30;3.20;;;;;;;-1.56;99.13;100782.55;109886;1247;68910;-77
2023/03/02 06:11:58;;;;;;;9.50;3.40;;;;;;;-1.56;98.83;100785.17;109222;1247;1002102;-76
2023/03/02 06:14:45;;;;;;;10.10;3.60;;;;;;;-1.56;98.58;100787.78;109719;1247;58719;-78
2023/03/02 06:17:34;;;;;;;10.10;3.60;;;;;;;-1.54;98.47;100788.62;110015;1246;58838;-77
2023/03/02 06:20:22;;;;;;;12.80;3.50;;;;;;;-1.51;98.24;100786.14;109799;1246;73696;-78
2023/03/02 06:23:11;;;;;;;11.90;3.50;;;;;;;-1.49;98.10;100786.80;109781;1250;66339;-76
2023/03/02 06:25:58;;;;;;;10.80;3.60;;;;;;;-1.45;97.97;100786.73;110012;1246;71506;-77
2023/03/02 06:28:47;;;;;;;8.90;3.00;;;;;;;-1.41;97.75;100789.47;109242;1251;1002158;-77
2023/03/02 06:31:40;;;;;;;8.90;3.20;;;;;;;-1.38;97.50;100790.11;110013;1247;60122;-78
2023/03/02 06:34:28;;;;;;;11.30;3.00;;;;;;;-1.35;97.36;100788.66;109262;1247;1002028;-75
2023/03/02 06:37:16;;;;;;;10.40;3.80;;;;;;;-1.33;97.19;100785.50;110069;1246;67758;-75
2023/03/02 06:40:14;;;;;;;11.30;4.90;;;;;;;-1.30;97.24;100788.21;110011;1247;72402;-79
2023/03/02 06:43:03;;;;;;;13.50;4.20;;;;;;;-1.25;97.07;100792.84;110061;1250;58102;-76
2023/03/02 06:45:51;;;;;;;12.00;4.20;;;;;;;-1.18;97.12;100792.02;110043;1246;58758;-77
2023/03/02 06:48:39;;;;;;;10.60;4.40;;;;;;;-1.11;97.11;100790.35;109998;1247;72580;-76
2023/03/02 06:51:27;;;;;;;13.00;5.10;;;;;;;-1.03;96.73;100786.35;109706;1246;66636;-77
2023/03/02 06:54:15;;;;;;;14.00;4.90;;;;;;;-0.94;96.39;100785.84;110010;1248;72627;-77
2023/03/02 06:57:03;;;;;;;11.90;5.10;;;;;;;-0.85;95.94;100791.61;109798;1247;58107;-77
2023/03/02 06:59:51;;;;;;;12.70;5.40;;;;;;;-0.76;95.93;100789.33;110055;1247;58670;-77
2023/03/02 07:02:38;;;;;;;15.60;5.10;;;;;;;-0.66;95.86;100785.14;110039;1248;74706;-75
2023/03/02 07:05:28;;;;;;;14.70;5.20;;;;;;;-0.54;95.56;100786.30;110042;1247;67598;-76
2023/03/02 07:08:16;;;;;;;13.40;5.10;;;;;;;-0.43;95.01;100783.30;110005;1247;72687;-75
2023/03/02 07:11:10;;;;;;;14.00;5.30;;;;;;;-0.22;94.49;100785.80;110000;1251;58506;-75
2023/03/02 07:14:01;;;;;;;14.30;5.10;;;;;;;0.37;92.81;100785.69;109756;1250;61041;-77
2023/03/02 07:16:49;;;;;;;15.20;5.40;;;;;;;1.78;91.30;100778.92;109842;1248;73939;-78
2023/03/02 07:19:37;;;;;;;9.90;3.90;;;;;;;3.74;87.65;100776.17;110072;1251;66895;-76
2023/03/02 07:22:27;;;;;;;11.10;4.70;;;;;;;5.57;81.25;100766.67;109996;1247;72447;-78
2023/03/02 07:25:15;;;;;;;11.60;4.30;;;;;;;7.24;75.71;100764.52;110002;1247;58032;-72
2023/03/02 07:28:04;;;;;;;10.50;4.10;;;;;;;8.89;70.31;100755.55;109952;1248;59960;-70
2023/03/02 07:30:53;;;;;;;10.00;3.80;;;;;;;10.28;62.72;100747.79;110002;1247;73557;-72
2023/03/02 07:33:41;;;;;;;10.60;4.30;;;;;;;11.43;58.44;100740.41;110009;1247;69066;-70
2023/03/02 07:36:28;;;;;;;9.40;4.10;;;;;;;12.44;52.81;100741.54;110082;1246;72391;-70
2023/03/02 07:39:17;;;;;;;10.30;4.30;;;;;;;13.29;50.20;100734.69;109946;1247;58661;-71
2023/03/02 07:42:07;;;;;;;8.00;3.20;;;;;;;13.92;45.81;100733.30;110005;1249;59089;-78
2023/03/02 07:44:55;;;;;;;7.90;3.20;;;;;;;14.56;44.67;100731.59;109870;1246;73966;-77
2023/03/02 07:47:43;;;;;;;8.40;3.90;;;;;;;15.14;43.41;100727.09;110035;1247;68887;-76
2023/03/02 07:50:32;;;;;;;8.60;3.60;;;;;;;15.52;39.53;100728.65;109714;1248;73373;-77
2023/03/02 07:53:20;;;;;;;8.10;2.90;;;;;;;15.86;38.38;100727.04;109874;1248;58138;-77
2023/03/02 07:56:10;;;;;;;7.70;3.00;;;;;;;16.10;37.97;100727.45;109880;1248;60275;-78
2023/03/02 07:58:58;;;;;;;7.80;2.90;;;;;;;16.43;37.55;100722.64;109845;1248;74713;-76
2023/03/02 08:01:45;;;;;;;7.70;2.60;;;;;;;16.86;37.04;100718.88;109849;1248;67968;-75
2023/03/02 08:04:34;;;;;;;8.40;3.00;;;;;;;17.32;36.09;100716.02;109817;1248;73182;-75
2023/03/02 08:07:22;;;;;;;8.70;2.80;;;;;;;17.79;34.92;100711.47;109840;1248;58668;-76
2023/03/02 08:10:11;;;;;;;8.10;2.90;;;;;;;18.03;33.68;100711.93;109827;1248;60437;-76
2023/03/02 08:12:58;;;;;;;10.00;2.90;;;;;;;18.26;32.85;100710.05;109838;1248;73907;-75
2023/03/02 08:15:46;;;;;;;7.30;2.60;;;;;;;18.58;32.91;100708.42;109826;1248;67665;-74
2023/03/02 08:18:36;;;;;;;7.80;2.80;;;;;;;18.88;32.10;100703.52;109780;1248;72790;-76
2023/03/02 08:21:25;;;;;;;6.70;2.60;;;;;;;19.05;31.48;100698.35;109690;1248;58098;-76
2023/03/02 08:24:14;;;;;;;7.10;2.30;;;;;;;19.23;31.34;100699.50;109777;1248;59148;-74
2023/03/02 08:27:03;;;;;;;7.40;2.30;;;;;;;19.57;30.80;100699.92;109756;1248;73531;-75
2023/03/02 08:29:53;;;;;;;7.70;2.60;;;;;;;19.82;30.53;100702.11;109744;1248;68055;-75
2023/03/02 08:32:41;;;;;;;7.00;2.30;;;;;;;19.95;30.03;100699.73;109874;1248;72877;-75
2023/03/02 08:35:29;;;;;;;7.40;2.20;;;;;;;20.08;29.77;100700.16;109868;1248;58036;-75
2023/03/02 08:38:16;;;;;;;6.00;2.00;;;;;;;20.31;29.54;100700.90;109928;1248;58932;-75
2023/03/02 08:41:09;;;;;;;7.30;2.40;;;;;;;20.43;28.95;100696.92;109856;1248;73037;-75
2023/03/02 08:43:57;;;;;;;6.30;1.90;;;;;;;20.57;28.70;100698.34;109733;1248;69084;-76
2023/03/02 08:46:46;;;;;;;7.40;1.90;;;;;;;20.60;28.22;100695.04;109845;1248;71031;-76
2023/03/02 08:49:35;;;;;;;7.10;1.80;;;;;;;20.84;28.18;100697.80;109867;1247;58488;-77
2023/03/02 08:52:24;;;;;;;7.70;2.10;;;;;;;21.17;28.00;100696.05;110048;1247;61092;-75
2023/03/02 08:55:12;;;;;;;6.90;1.70;;;;;;;21.49;27.47;100690.83;109773;1247;72960;-77
2023/03/02 08:58:02;;;;;;;5.90;2.00;;;;;;;21.91;26.90;100695.15;110050;1247;68609;-76
2023/03/02 09:00:50;;;;;;;6.00;2.00;;;;;;;22.07;26.28;100695.63;109892;1248;71086;-77
2023/03/02 09:03:38;;;;;;;6.70;2.10;;;;;;;22.43;26.12;100687.48;109976;1247;58088;-77
2023/03/02 09:06:29;;;;;;;5.90;1.90;;;;;;;22.56;25.41;100693.02;109966;1247;59085;-76
2023/03/02 09:09:16;;;;;;;7.90;2.10;;;;;;;22.57;25.40;100696.98;109914;1247;72567;-76
2023/03/02 09:12:05;;;;;;;6.80;2.00;;;;;;;22.58;25.29;100689.14;110030;1247;67709;-77
2023/03/02 09:14:53;;;;;;;7.20;2.10;;;;;;;22.67;25.50;100692.41;110001;1247;72382;-76
2023/03/02 09:17:41;;;;;;;6.30;2.00;;;;;;;22.74;25.52;100684.92;110013;1247;58101;-75
2023/03/02 09:20:28;;;;;;;6.60;2.40;;;;;;;22.75;25.16;100687.48;110038;1247;61065;-76
2023/03/02 09:23:18;;;;;;;7.20;2.40;;;;;;;22.73;25.25;100682.08;109954;1247;73662;-76
2023/03/02 09:26:06;;;;;;;7.30;2.40;;;;;;;22.85;24.91;100683.05;110067;1246;67649;-76
2023/03/02 09:28:54;;;;;;;8.00;2.80;;;;;;;23.04;24.78;100679.83;110010;1247;72375;-76
2023/03/02 09:31:43;;;;;;;7.10;2.60;;;;;;;23.19;24.27;100677.08;109786;1247;58066;-77
2023/03/02 09:34:30;;;;;;;7.00;2.40;;;;;;;23.32;24.10;100676.31;109905;1247;58801;-71
2023/03/02 09:37:18;;;;;;;6.80;2.40;;;;;;;23.40;23.96;100675.88;109985;1247;73976;-71
2023/03/02 09:40:43;;;;;;;6.40;2.30;;;;;;;23.36;24.14;100681.23;109841;1247;68650;-72
2023/03/02 09:43:43;;;;;;;6.00;2.00;;;;;;;23.36;23.81;100677.05;110042;1247;72662;-72
2023/03/02 09:47:04;;;;;;;6.80;2.40;;;;;;;23.65;23.79;100672.86;109982;1247;58097;-72
2023/03/02 09:50:26;;;;;;;7.30;2.90;;;;;;;23.98;23.26;100674.52;109965;1247;60791;-73
2023/03/02 09:53:44;;;;;;;6.70;2.50;;;;;;;24.04;23.11;100675.91;109861;1246;73598;-72
2023/03/02 09:56:37;;;;;;;9.00;4.10;;;;;;;24.11;22.62;100677.91;109872;1247;68559;-70
2023/03/02 09:59:38;;;;;;;8.90;3.50;;;;;;;24.35;22.80;100670.52;109821;1246;73447;-73
2023/03/02 10:02:35;;;;;;;7.50;2.60;;;;;;;24.78;22.24;100671.48;109992;1247;58120;-74
2023/03/02 10:05:39;;;;;;;7.10;2.60;;;;;;;25.08;22.15;100668.20;109806;1247;61612;-76
2023/03/02 10:08:33;;;;;;;7.40;2.60;;;;;;;25.31;21.61;100667.34;109797;1247;74902;-75
2023/03/02 10:11:49;;;;;;;7.80;2.90;;;;;;;25.28;21.37;100663.42;109749;1247;67631;-76
2023/03/02 10:14:48;;;;;;;7.60;2.90;;;;;;;25.26;21.42;100662.56;109858;1247;72315;-75
2023/03/02 10:18:11;;;;;;;7.50;2.70;;;;;;;25.38;21.31;100662.69;109852;1247;58597;-75
2023/03/02 10:21:32;;;;;;;8.20;3.00;;;;;;;25.42;21.05;100665.98;109872;1247;60111;-74
2023/03/02 10:24:49;;;;;;;8.40;3.40;;;;;;;25.69;20.80;100662.91;109246;1257;73503;-71
2023/03/02 10:27:50;;;;;;;8.00;3.00;;;;;;;25.83;20.53;100663.20;109191;1257;67186;-72
2023/03/02 10:30:39;;;;;;;8.20;2.70;;;;;;;25.80;20.33;100657.36;109172;1256;71445;-73
2023/03/02 10:33:28;;;;;;;7.80;3.10;;;;;;;25.65;20.41;100653.16;109154;1256;58718;-76
2023/03/02 10:36:27;;;;;;;8.60;2.90;;;;;;;25.75;20.43;100653.52;109260;1255;60348;-75
2023/03/02 10:39:16;;;;;;;7.20;2.70;;;;;;;25.82;20.45;100655.30;109179;1256;72812;-75
2023/03/02 10:42:12;;;;;;;8.50;3.10;;;;;;;25.75;20.01;100654.98;109180;1256;68087;-75
2023/03/02 10:45:28;;;;;;;7.10;2.60;;;;;;;25.67;20.26;100657.77;109153;1255;72884;-75
2023/03/02 10:48:16;;;;;;;7.30;2.80;;;;;;;25.57;20.50;100655.05;109142;1254;59430;-75
2023/03/02 10:51:05;;;;;;;6.50;2.50;;;;;;;25.59;20.61;100654.02;109328;1254;60406;-74
2023/03/02 10:54:22;;;;;;;7.00;2.70;;;;;;;25.53;20.24;100652.73;109319;1254;73809;-74
2023/03/02 10:57:28;;;;;;;7.10;2.60;;;;;;;25.38;20.41;100649.20;108977;1259;68701;-75
2023/03/02 11:00:26;;;;;;;7.00;2.80;;;;;;;25.17;20.41;100653.51;109092;1253;71073;-74
2023/03/02 11:03:25;;;;;;;7.10;2.80;;;;;;;25.22;20.58;100652.95;109264;1254;58088;-75
2023/03/02 11:06:21;;;;;;;6.40;2.30;;;;;;;25.23;20.56;100652.95;109283;1254;58966;-75
2023/03/02 11:09:13;;;;;;;7.30;2.60;;;;;;;25.08;20.58;100649.52;109213;1254;74039;-74
2023/03/02 11:12:01;;;;;;;7.10;2.50;;;;;;;25.05;20.57;100644.23;109191;1254;68640;-76
2023/03/02 11:15:39;;;;;;;7.50;2.70;;;;;;;25.08;20.40;100643.23;109262;1254;71532;-76
2023/03/02 11:18:41;;;;;;;7.30;2.90;;;;;;;24.93;20.62;100642.40;109272;1254;59082;-72
2023/03/02 11:21:49;;;;;;;6.70;2.80;;;;;;;24.75;20.71;100642.33;109299;1254;58731;-76
2023/03/02 11:24:56;;;;;;;7.10;2.80;;;;;;;24.67;20.64;100640.94;109192;1254;73933;-73
2023/03/02 11:27:45;;;;;;;7.00;2.90;;;;;;;24.57;20.78;100634.67;109253;1254;67356;-72
2023/03/02 11:30:39;;;;;;;7.80;3.00;;;;;;;24.15;20.81;100631.94;109091;1254;73730;-72
2023/03/02 11:34:03;;;;;;;7.00;2.90;;;;;;;23.84;21.46;100624.42;109481;1247;58227;-74
2023/03/02 11:37:45;;;;;;;7.20;3.00;;;;;;;23.48;21.65;100627.09;109965;1246;61361;-73
2023/03/02 11:40:50;;;;;;;7.10;3.40;;;;;;;23.02;22.22;100612.79;109947;1247;72802;-73
2023/03/02 11:43:38;;;;;;;7.30;3.10;;;;;;;22.51;22.23;100612.34;109986;1246;66463;-73
2023/03/02 11:46:31;;;;;;;6.80;2.60;;;;;;;21.97;22.90;100612.27;109956;1247;72888;-74
2023/03/02 11:49:38;;;;;;;6.60;2.40;;;;;;;21.11;23.50;100611.48;109943;1246;58217;-75
2023/03/02 11:52:31;;;;;;;7.00;2.40;;;;;;;20.35;24.57;100612.50;109907;1246;60060;-74
2023/03/02 11:55:26;;;;;;;8.80;2.60;;;;;;;19.92;24.95;100610.15;110037;1246;74980;-74
2023/03/02 11:58:24;;;;;;;7.00;3.10;;;;;;;19.63;25.72;100605.69;109860;1246;66337;-71
2023/03/02 12:01:24;;;;;;;7.40;3.50;;;;;;;19.45;26.26;100604.70;109711;1246;72195;-74
2023/03/02 12:04:34;;;;;;;7.70;3.40;;;;;;;19.16;26.59;100602.27;109754;1246;58101;-72
2023/03/02 12:07:26;;;;;;;7.10;2.80;;;;;;;18.91;26.76;100597.16;109992;1246;60278;-71
2023/03/02 12:10:57;;;;;;;7.90;3.30;;;;;;;18.55;27.07;100599.51;109838;1247;71985;-72
2023/03/02 12:14:02;;;;;;;7.40;3.00;;;;;;;18.06;28.05;100593.94;109945;1247;68786;-72
2023/03/02 12:16:51;;;;;;;9.90;3.80;;;;;;;17.70;28.78;100591.19;109983;1246;72381;-74
2023/03/02 12:19:43;;;;;;;8.40;3.70;;;;;;;17.29;29.50;100589.34;109765;1246;58122;-74
2023/03/02 12:22:33;;;;;;;8.50;3.80;;;;;;;16.95;30.20;100587.53;110033;1246;60297;-74
2023/03/02 12:25:26;;;;;;;9.60;4.80;;;;;;;16.59;30.98;100584.71;109876;1246;75161;-74
2023/03/02 12:28:37;;;;;;;10.50;5.10;;;;;;;16.16;31.92;100588.19;110034;1247;66723;-73
2023/03/02 12:31:42;;;;;;;11.00;5.80;;;;;;;15.88;32.75;100589.70;110030;1246;72313;-74
2023/03/02 12:34:51;;;;;;;12.40;5.40;;;;;;;15.30;33.65;100588.70;109975;1246;58182;-73
2023/03/02 12:38:21;;;;;;;9.50;4.90;;;;;;;14.99;33.98;100582.71;109872;1246;61566;-74
2023/03/02 12:41:46;;;;;;;10.20;5.10;;;;;;;14.64;34.35;100575.59;109760;1246;75172;-73
2023/03/02 12:44:49;;;;;;;11.50;5.60;;;;;;;14.22;35.36;100575.45;109878;1246;68115;-73
2023/03/02 12:47:40;;;;;;;14.40;7.00;;;;;;;13.58;36.98;100571.25;109981;1247;72953;-74
2023/03/02 12:50:35;;;;;;;12.00;5.60;;;;;;;12.97;38.04;100572.58;110069;1247;58221;-73
2023/03/02 12:53:23;;;;;;;11.60;5.10;;;;;;;12.63;38.65;100574.71;109771;1247;59575;-75
2023/03/02 12:56:22;;;;;;;10.10;4.70;;;;;;;12.29;39.10;100568.82;110061;1246;72704;-74
2023/03/02 12:59:25;;;;;;;11.40;5.20;;;;;;;11.97;40.01;100569.95;109839;1247;66428;-73
2023/03/02 13:02:20;;;;;;;9.80;4.50;;;;;;;11.76;40.25;100562.05;109910;1247;71054;-72
2023/03/02 13:05:15;;;;;;;10.20;4.90;;;;;;;11.49;40.86;100564.25;110063;1247;58110;-75
2023/03/02 13:08:24;;;;;;;10.70;4.60;;;;;;;11.06;42.08;100560.09;110086;1247;58092;-76